createdAt,value
2022-08-30T00:00:40.641Z,39.00
2022-08-30T00:03:09.492Z,39.40
2022-08-30T00:05:37.600Z,39.80
2022-08-30T00:08:05.614Z,40.40
2022-08-30T00:10:34.869Z,40.50
2022-08-30T00:13:02.693Z,40.40
2022-08-30T00:15:31.772Z,40.10
2022-08-30T00:17:59.964Z,39.90
2022-08-30T00:20:33.394Z,39.90
2022-08-30T00:23:01.822Z,40.20
2022-08-30T00:25:29.931Z,40.30
2022-08-30T00:27:59.063Z,40.30
2022-08-30T00:30:27.325Z,40.40
2022-08-30T00:32:55.133Z,40.60
2022-08-30T00:35:23.716Z,40.90
2022-08-30T00:37:51.725Z,41.10
2022-08-30T00:40:24.978Z,41.30
2022-08-30T00:42:59.559Z,41.30
2022-08-30T00:45:31.811Z,41.80
2022-08-30T00:48:00.315Z,42.00
2022-08-30T00:50:31.936Z,42.30
2022-08-30T00:53:03.624Z,42.40
2022-08-30T00:55:33.148Z,42.70
2022-08-30T00:58:05.108Z,43.10
2022-08-30T01:00:34.957Z,43.00
2022-08-30T01:03:02.845Z,43.20
2022-08-30T01:05:31.198Z,43.40
2022-08-30T01:07:58.988Z,43.70
2022-08-30T01:10:26.796Z,43.80
2022-08-30T01:12:54.566Z,43.80
2022-08-30T01:15:22.686Z,43.80
2022-08-30T01:17:52.738Z,44.10
2022-08-30T01:20:25.735Z,44.30
2022-08-30T01:23:06.157Z,44.40
2022-08-30T01:25:37.900Z,44.30
2022-08-30T01:28:08.718Z,44.00
2022-08-30T01:30:39.402Z,44.00
2022-08-30T01:33:09.054Z,44.00
2022-08-30T01:35:45.984Z,44.00
2022-08-30T01:38:16.248Z,44.30
2022-08-30T01:40:44.052Z,44.20
2022-08-30T01:43:13.696Z,44.50
2022-08-30T01:45:41.794Z,44.70
2022-08-30T01:48:12.732Z,44.70
2022-08-30T01:50:41.396Z,44.80
2022-08-30T01:53:13.173Z,44.80
2022-08-30T01:55:43.283Z,45.10
2022-08-30T01:58:11.192Z,44.80
2022-08-30T02:00:39.653Z,44.70
2022-08-30T02:03:07.969Z,45.00
2022-08-30T02:05:36.742Z,45.00
2022-08-30T02:08:05.010Z,45.70
2022-08-30T02:10:33.094Z,45.30
2022-08-30T02:13:03.008Z,45.70
2022-08-30T02:15:30.887Z,45.90
2022-08-30T02:18:10.576Z,45.90
2022-08-30T02:20:39.488Z,45.70
2022-08-30T02:23:07.265Z,45.70
2022-08-30T02:25:35.087Z,45.60
2022-08-30T02:28:04.632Z,45.50
2022-08-30T02:30:32.723Z,45.70
2022-08-30T02:33:00.507Z,45.50
2022-08-30T02:35:28.380Z,46.00
2022-08-30T02:37:56.133Z,45.80
2022-08-30T02:40:24.192Z,45.90
2022-08-30T02:42:52.227Z,46.00
2022-08-30T02:45:21.477Z,46.00
2022-08-30T02:47:49.265Z,46.80
2022-08-30T02:50:17.817Z,46.40
2022-08-30T02:52:48.223Z,46.60
2022-08-30T02:55:16.979Z,46.80
2022-08-30T02:57:44.773Z,47.00
2022-08-30T03:00:16.337Z,47.30
2022-08-30T03:02:45.530Z,47.30
2022-08-30T03:05:15.571Z,47.40
2022-08-30T03:07:45.544Z,47.60
2022-08-30T03:10:13.933Z,47.70
2022-08-30T03:12:42.581Z,47.80
2022-08-30T03:15:12.522Z,47.90
2022-08-30T03:17:40.672Z,48.30
2022-08-30T03:20:12.232Z,48.10
2022-08-30T03:22:40.264Z,48.40
2022-08-30T03:25:09.245Z,48.50
2022-08-30T03:27:37.041Z,48.80
2022-08-30T03:30:06.880Z,48.90
2022-08-30T03:32:35.017Z,48.80
2022-08-30T03:35:02.849Z,49.00
2022-08-30T03:37:31.987Z,49.30
2022-08-30T03:39:59.886Z,49.50
2022-08-30T03:42:27.795Z,49.20
2022-08-30T03:44:55.589Z,49.50
2022-08-30T03:47:23.379Z,49.80
2022-08-30T03:49:51.174Z,49.90
2022-08-30T03:52:18.945Z,49.90
2022-08-30T03:54:48.130Z,50.00
2022-08-30T03:57:20.130Z,50.40
2022-08-30T03:59:52.105Z,50.30
2022-08-30T04:02:19.946Z,50.50
2022-08-30T04:04:48.588Z,50.40
2022-08-30T04:07:16.413Z,50.90
2022-08-30T04:09:44.209Z,50.90
2022-08-30T04:12:13.591Z,51.20
2022-08-30T04:14:46.160Z,51.50
2022-08-30T04:17:13.944Z,51.50
2022-08-30T04:19:41.711Z,51.60
2022-08-30T04:22:09.537Z,51.70
2022-08-30T04:24:38.304Z,51.80
2022-08-30T04:27:06.603Z,52.20
2022-08-30T04:29:36.222Z,52.20
2022-08-30T04:32:04.560Z,52.10
2022-08-30T04:34:32.407Z,52.60
2022-08-30T04:37:00.183Z,52.70
2022-08-30T04:39:27.980Z,52.90
2022-08-30T04:41:55.921Z,53.00
2022-08-30T04:44:25.887Z,53.10
2022-08-30T04:46:55.059Z,53.40
2022-08-30T04:49:22.823Z,53.40
2022-08-30T04:51:50.634Z,53.70
2022-08-30T04:54:18.484Z,53.60
2022-08-30T04:56:46.268Z,53.80
2022-08-30T04:59:14.128Z,53.80
2022-08-30T05:01:45.203Z,54.30
2022-08-30T05:04:15.386Z,53.80
2022-08-30T05:06:43.587Z,53.80
2022-08-30T05:09:11.482Z,53.90
2022-08-30T05:11:39.772Z,54.40
2022-08-30T05:14:07.912Z,54.30
2022-08-30T05:16:35.876Z,54.60
2022-08-30T05:19:03.679Z,54.70
2022-08-30T05:21:32.855Z,54.70
2022-08-30T05:24:01.996Z,55.20
2022-08-30T05:26:32.806Z,55.30
2022-08-30T05:29:00.893Z,55.90
2022-08-30T05:31:32.397Z,57.10
2022-08-30T05:34:00.467Z,57.90
2022-08-30T05:36:30.708Z,58.50
2022-08-30T05:39:00.750Z,58.50
2022-08-30T05:41:29.192Z,57.80
2022-08-30T05:43:58.949Z,57.10
2022-08-30T05:46:29.691Z,56.70
2022-08-30T05:48:58.268Z,56.20
2022-08-30T05:51:28.625Z,55.80
2022-08-30T05:53:57.961Z,55.40
2022-08-30T05:56:29.356Z,54.70
2022-08-30T05:58:57.200Z,54.70
2022-08-30T06:01:27.442Z,54.80
2022-08-30T06:04:00.369Z,55.50
2022-08-30T06:06:32.531Z,55.40
2022-08-30T06:09:00.518Z,55.30
2022-08-30T06:11:30.051Z,54.70
2022-08-30T06:13:58.272Z,54.70
2022-08-30T06:16:27.766Z,54.70
2022-08-30T06:18:57.365Z,55.00
2022-08-30T06:21:28.610Z,55.20
2022-08-30T06:23:56.818Z,55.80
2022-08-30T06:26:26.037Z,56.10
2022-08-30T06:28:55.551Z,55.80
2022-08-30T06:31:24.654Z,55.50
2022-08-30T06:33:53.353Z,55.70
2022-08-30T06:36:23.252Z,55.60
2022-08-30T06:38:52.767Z,55.90
2022-08-30T06:41:22.936Z,55.40
2022-08-30T06:43:51.148Z,54.60
2022-08-30T06:46:23.114Z,52.90
2022-08-30T06:48:51.440Z,50.30
2022-08-30T06:51:21.698Z,48.60
2022-08-30T06:53:51.679Z,47.00
2022-08-30T06:56:22.182Z,45.50
2022-08-30T06:58:50.565Z,44.20
2022-08-30T07:01:22.330Z,42.90
2022-08-30T07:03:50.388Z,41.40
2022-08-30T07:06:18.902Z,40.00
2022-08-30T07:08:47.805Z,38.40
2022-08-30T07:11:15.805Z,37.70
2022-08-30T07:13:45.536Z,37.00
2022-08-30T07:16:15.002Z,36.00
2022-08-30T07:18:54.705Z,33.80
2022-08-30T07:21:25.440Z,32.80
2022-08-30T07:23:54.738Z,32.00
2022-08-30T07:26:25.317Z,31.30
2022-08-30T07:28:56.021Z,30.50
2022-08-30T07:31:25.051Z,29.80
2022-08-30T07:33:54.166Z,29.50
2022-08-30T07:36:22.723Z,29.90
2022-08-30T07:38:51.414Z,30.00
2022-08-30T07:41:22.741Z,30.20
2022-08-30T07:43:51.040Z,29.90
2022-08-30T07:46:20.026Z,29.10
2022-08-30T07:48:48.340Z,28.70
2022-08-30T07:51:20.749Z,28.70
2022-08-30T07:53:48.640Z,28.20
2022-08-30T07:56:16.954Z,28.20
2022-08-30T07:58:44.770Z,28.20
2022-08-30T08:01:14.609Z,28.20
2022-08-30T08:03:43.923Z,28.60
2022-08-30T08:06:13.549Z,28.50
2022-08-30T08:08:43.613Z,28.70
2022-08-30T08:11:16.188Z,28.20
2022-08-30T08:13:53.451Z,27.30
2022-08-30T08:16:23.087Z,26.80
2022-08-30T08:18:51.060Z,26.40
2022-08-30T08:21:18.820Z,25.90
2022-08-30T08:23:48.548Z,25.60
2022-08-30T08:26:16.735Z,25.30
2022-08-30T08:28:46.968Z,25.30
2022-08-30T08:31:16.676Z,24.90
2022-08-30T08:33:44.563Z,24.50
2022-08-30T08:36:12.372Z,23.70
2022-08-30T08:38:40.147Z,23.80
2022-08-30T08:41:13.864Z,23.00
2022-08-30T08:43:42.279Z,22.70
2022-08-30T08:46:17.160Z,22.80
2022-08-30T08:48:59.567Z,22.80
2022-08-30T08:51:50.213Z,22.60
2022-08-30T08:54:25.313Z,22.70
2022-08-30T08:56:54.845Z,22.50
2022-08-30T08:59:22.819Z,22.50
2022-08-30T09:01:51.065Z,22.50
2022-08-30T09:04:24.299Z,22.80
2022-08-30T09:06:55.855Z,23.30
2022-08-30T09:09:28.408Z,23.40
2022-08-30T09:11:57.624Z,23.60
2022-08-30T09:14:30.742Z,23.80
2022-08-30T09:17:02.566Z,23.90
2022-08-30T09:19:37.639Z,24.00
2022-08-30T09:22:23.079Z,24.00
2022-08-30T09:24:52.748Z,23.80
2022-08-30T09:27:25.849Z,23.40
2022-08-30T09:29:58.139Z,23.40
2022-08-30T09:32:28.558Z,23.50
2022-08-30T09:34:56.741Z,23.30
2022-08-30T09:37:28.645Z,23.10
2022-08-30T09:39:56.597Z,22.80
2022-08-30T09:42:28.900Z,22.40
2022-08-30T09:45:10.314Z,22.60
2022-08-30T09:47:40.613Z,22.70
2022-08-30T09:50:12.389Z,22.90
2022-08-30T09:52:55.191Z,23.00
2022-08-30T09:55:41.029Z,22.70
2022-08-30T09:58:14.280Z,22.40
2022-08-30T10:00:48.624Z,21.60
2022-08-30T10:03:36.296Z,20.90
2022-08-30T10:06:16.025Z,20.30
2022-08-30T10:08:56.875Z,19.90
2022-08-30T10:11:31.676Z,19.70
2022-08-30T10:14:10.024Z,19.50
2022-08-30T10:16:50.237Z,20.00
2022-08-30T10:19:30.095Z,20.70
2022-08-30T10:22:02.532Z,20.90
2022-08-30T10:24:34.908Z,21.80
2022-08-30T10:27:08.363Z,21.80
2022-08-30T10:29:43.819Z,21.60
2022-08-30T10:32:21.038Z,21.30
2022-08-30T10:34:55.502Z,21.20
2022-08-30T10:37:26.403Z,20.80
2022-08-30T10:40:00.829Z,20.30
2022-08-30T10:42:39.356Z,20.40
2022-08-30T10:45:14.248Z,20.00
2022-08-30T10:47:48.335Z,20.20
2022-08-30T10:50:22.457Z,20.40
2022-08-30T10:52:55.348Z,21.10
2022-08-30T10:55:27.418Z,21.10
2022-08-30T10:57:59.835Z,21.00
2022-08-30T11:00:32.541Z,21.20
2022-08-30T11:03:33.824Z,21.20
2022-08-30T11:06:15.202Z,20.60
2022-08-30T11:09:08.962Z,20.60
2022-08-30T11:11:51.267Z,21.20
2022-08-30T11:14:21.148Z,21.20
2022-08-30T11:16:57.383Z,21.90
2022-08-30T11:19:32.072Z,21.40
2022-08-30T11:22:13.847Z,21.60
2022-08-30T11:25:09.835Z,22.20
2022-08-30T11:27:58.335Z,21.90
2022-08-30T11:30:51.159Z,22.10
2022-08-30T11:33:46.478Z,21.80
2022-08-30T11:36:38.664Z,21.90
2022-08-30T11:39:51.487Z,22.20
2022-08-30T11:42:29.626Z,22.90
2022-08-30T11:45:35.969Z,22.70
2022-08-30T11:48:05.832Z,22.50
2022-08-30T11:50:44.285Z,22.70
2022-08-30T11:53:23.748Z,22.90
2022-08-30T11:56:01.392Z,22.60
2022-08-30T11:58:44.062Z,22.20
2022-08-30T12:01:40.861Z,23.10
2022-08-30T12:04:15.419Z,23.10
2022-08-30T12:06:54.765Z,22.90
2022-08-30T12:10:02.005Z,22.50
2022-08-30T12:12:48.835Z,22.10
2022-08-30T12:15:54.413Z,22.30
2022-08-30T12:18:29.701Z,23.00
2022-08-30T12:21:04.798Z,23.00
2022-08-30T12:23:44.285Z,23.40
2022-08-30T12:26:20.054Z,23.50
2022-08-30T12:28:50.903Z,23.90
2022-08-30T12:31:22.589Z,24.70
2022-08-30T12:33:54.681Z,24.40
2022-08-30T12:36:35.471Z,24.30
2022-08-30T12:39:16.640Z,23.50
2022-08-30T12:41:45.383Z,23.60
2022-08-30T12:44:17.604Z,23.30
2022-08-30T12:46:49.248Z,23.50
2022-08-30T12:49:18.541Z,23.40
2022-08-30T12:51:46.723Z,23.80
2022-08-30T12:54:20.408Z,24.20
2022-08-30T12:57:01.415Z,24.50
2022-08-30T12:59:58.572Z,25.10
2022-08-30T13:02:29.861Z,24.90
2022-08-30T13:04:58.984Z,25.20
2022-08-30T13:07:32.783Z,25.20
2022-08-30T13:10:07.471Z,25.40
2022-08-30T13:12:38.239Z,25.60
2022-08-30T13:15:16.399Z,25.70
2022-08-30T13:17:44.844Z,26.30
2022-08-30T13:20:26.275Z,26.50
2022-08-30T13:23:04.324Z,26.40
2022-08-30T13:25:33.956Z,26.90
2022-08-30T13:28:03.332Z,27.60
2022-08-30T13:30:32.560Z,27.90
2022-08-30T13:33:02.237Z,27.70
2022-08-30T13:35:30.966Z,28.60
2022-08-30T13:38:00.834Z,28.40
2022-08-30T13:40:28.719Z,28.40
2022-08-30T13:42:59.188Z,28.10
2022-08-30T13:45:43.638Z,27.80
2022-08-30T13:48:12.593Z,27.70
2022-08-30T13:50:40.866Z,27.70
2022-08-30T13:53:09.152Z,27.80
2022-08-30T13:55:37.641Z,27.80
2022-08-30T13:58:07.280Z,27.50
2022-08-30T14:00:38.143Z,28.00
2022-08-30T14:03:06.783Z,28.30
2022-08-30T14:11:18.925Z,27.70
2022-08-30T14:16:38.958Z,27.40
2022-08-30T14:19:07.530Z,27.10
2022-08-30T14:21:35.530Z,27.40
2022-08-30T14:24:06.364Z,27.30
2022-08-30T14:26:38.621Z,27.40
2022-08-30T14:29:10.881Z,27.30
2022-08-30T14:31:39.149Z,27.50
2022-08-30T14:34:07.982Z,27.60
2022-08-30T14:36:38.338Z,27.40
2022-08-30T14:39:09.796Z,27.60
2022-08-30T14:41:43.923Z,27.60
2022-08-30T14:44:14.114Z,27.90
2022-08-30T14:46:42.074Z,27.30
2022-08-30T14:49:11.255Z,27.30
2022-08-30T14:51:39.878Z,27.40
2022-08-30T14:54:08.624Z,27.80
2022-08-30T14:56:38.407Z,27.80
2022-08-30T14:59:06.862Z,28.30
2022-08-30T15:01:39.170Z,28.30
2022-08-30T15:04:08.702Z,28.30
2022-08-30T15:06:37.149Z,28.60
2022-08-30T15:09:05.978Z,28.80
2022-08-30T15:11:34.119Z,29.10
2022-08-30T15:14:02.146Z,29.20
2022-08-30T15:16:33.139Z,29.00
2022-08-30T15:19:03.971Z,29.00
2022-08-30T15:21:34.379Z,29.30
2022-08-30T15:24:05.239Z,29.40
2022-08-30T15:26:34.015Z,29.30
2022-08-30T15:29:01.892Z,29.30
2022-08-30T15:31:32.183Z,29.30
2022-08-30T15:34:01.850Z,29.30
2022-08-30T15:36:31.167Z,29.20
2022-08-30T15:38:59.985Z,29.40
2022-08-30T15:41:29.472Z,29.60
2022-08-30T15:43:59.502Z,29.80
2022-08-30T15:46:30.168Z,29.70
2022-08-30T15:49:01.260Z,30.20
2022-08-30T15:51:41.831Z,30.10
2022-08-30T15:54:11.855Z,30.00
2022-08-30T15:56:47.605Z,30.00
2022-08-30T15:59:17.392Z,29.60
2022-08-30T16:01:47.698Z,29.70
2022-08-30T16:04:17.048Z,29.70
2022-08-30T16:06:48.005Z,29.90
2022-08-30T16:09:15.869Z,29.50
2022-08-30T16:11:44.260Z,29.50
2022-08-30T16:14:13.269Z,29.40
2022-08-30T16:16:42.632Z,29.20
2022-08-30T16:19:11.195Z,29.20
2022-08-30T16:21:41.519Z,29.40
2022-08-30T16:24:13.628Z,29.40
2022-08-30T16:26:42.628Z,29.40
2022-08-30T16:29:12.254Z,29.20
2022-08-30T16:31:40.486Z,29.00
2022-08-30T16:34:08.363Z,29.20
2022-08-30T16:36:37.193Z,29.20
2022-08-30T16:39:08.459Z,29.50
2022-08-30T16:41:38.276Z,29.10
2022-08-30T16:44:07.153Z,29.50
2022-08-30T16:46:37.481Z,29.70
2022-08-30T16:49:06.221Z,29.00
2022-08-30T16:51:37.705Z,29.30
2022-08-30T16:54:08.230Z,29.50
2022-08-30T16:56:38.633Z,29.60
2022-08-30T16:59:11.187Z,29.80
2022-08-30T17:01:42.017Z,30.00
2022-08-30T17:04:11.172Z,30.00
2022-08-30T17:06:41.136Z,30.00
2022-08-30T17:09:10.630Z,30.10
2022-08-30T17:11:41.083Z,30.10
2022-08-30T17:14:09.598Z,30.10
2022-08-30T17:16:38.259Z,30.30
2022-08-30T17:19:08.297Z,30.10
2022-08-30T17:21:36.455Z,30.00
2022-08-30T17:24:07.388Z,30.40
2022-08-30T17:26:37.965Z,30.60
2022-08-30T17:29:07.959Z,30.50
2022-08-30T17:31:37.441Z,30.40
2022-08-30T17:34:05.751Z,30.90
2022-08-30T17:36:36.491Z,30.70
2022-08-30T17:39:10.660Z,30.70
2022-08-30T17:41:41.148Z,31.40
2022-08-30T17:44:17.464Z,31.70
2022-08-30T17:46:45.957Z,32.40
2022-08-30T17:49:15.190Z,32.40
2022-08-30T17:51:43.450Z,32.20
2022-08-30T17:54:11.882Z,32.40
2022-08-30T17:56:39.964Z,32.50
2022-08-30T17:59:09.184Z,32.20
2022-08-30T18:01:38.881Z,32.90
2022-08-30T18:04:06.766Z,33.40
2022-08-30T18:06:35.203Z,33.50
2022-08-30T18:09:03.141Z,33.90
2022-08-30T18:11:30.936Z,34.30
2022-08-30T18:13:59.059Z,34.20
2022-08-30T18:16:27.490Z,34.20
2022-08-30T18:18:57.302Z,33.80
2022-08-30T18:21:25.689Z,33.90
2022-08-30T18:23:56.324Z,34.10
2022-08-30T18:26:24.917Z,34.30
2022-08-30T18:28:53.221Z,34.40
2022-08-30T18:31:21.332Z,34.40
2022-08-30T18:33:49.174Z,34.20
2022-08-30T18:36:18.708Z,34.30
2022-08-30T18:38:46.912Z,34.50
2022-08-30T18:41:15.799Z,34.60
2022-08-30T18:43:44.709Z,35.60
2022-08-30T18:46:14.652Z,35.20
2022-08-30T18:48:43.021Z,35.00
2022-08-30T18:51:12.140Z,34.90
2022-08-30T18:53:42.196Z,34.30
2022-08-30T18:56:10.154Z,34.40
2022-08-30T18:58:40.205Z,34.30
2022-08-30T19:01:13.457Z,34.70
2022-08-30T19:03:41.836Z,34.30
2022-08-30T19:06:12.512Z,34.10
2022-08-30T19:08:41.967Z,34.10
2022-08-30T19:11:13.725Z,34.30
2022-08-30T19:13:41.535Z,34.30
2022-08-30T19:16:12.011Z,34.70
2022-08-30T19:18:41.705Z,35.60
2022-08-30T19:21:13.663Z,35.40
2022-08-30T19:23:43.657Z,35.20
2022-08-30T19:26:11.529Z,35.40
2022-08-30T19:28:39.695Z,35.40
2022-08-30T19:31:08.318Z,35.80
2022-08-30T19:33:36.399Z,36.60
2022-08-30T19:36:06.726Z,37.00
2022-08-30T19:38:36.284Z,37.50
2022-08-30T19:41:06.079Z,37.70
2022-08-30T19:43:33.878Z,37.80
2022-08-30T19:46:01.919Z,37.90
2022-08-30T19:48:32.451Z,37.90
2022-08-30T19:51:01.884Z,37.60
2022-08-30T19:53:30.713Z,37.80
2022-08-30T19:55:58.538Z,37.80
2022-08-30T19:58:30.139Z,37.60
2022-08-30T20:01:01.086Z,37.60
2022-08-30T20:03:40.118Z,37.70
2022-08-30T20:06:08.959Z,38.30
2022-08-30T20:08:37.075Z,38.30
2022-08-30T20:11:05.149Z,38.60
2022-08-30T20:13:34.466Z,38.90
2022-08-30T20:16:02.740Z,38.80
2022-08-30T20:18:32.005Z,39.00
2022-08-30T20:20:59.875Z,39.00
2022-08-30T20:23:30.041Z,39.00
2022-08-30T20:26:04.683Z,39.00
2022-08-30T20:28:33.943Z,39.00
2022-08-30T20:31:04.510Z,39.00
2022-08-30T20:33:33.044Z,39.00
2022-08-30T20:36:02.269Z,39.10
2022-08-30T20:38:30.162Z,39.00
2022-08-30T20:41:00.981Z,38.40
2022-08-30T20:43:30.924Z,38.40
2022-08-30T20:46:00.238Z,38.00
2022-08-30T20:48:28.678Z,37.90
2022-08-30T20:50:56.627Z,37.80
2022-08-30T20:53:24.571Z,37.90
2022-08-30T20:55:54.586Z,37.80
2022-08-30T20:58:22.704Z,37.70
2022-08-30T21:00:53.205Z,37.70
2022-08-30T21:03:27.246Z,37.70
2022-08-30T21:05:57.376Z,37.70
2022-08-30T21:08:25.874Z,37.70
2022-08-30T21:10:55.614Z,38.00
2022-08-30T21:13:23.831Z,38.20
2022-08-30T21:15:57.620Z,38.20
2022-08-30T21:18:32.608Z,38.00
2022-08-30T21:21:00.941Z,38.30
2022-08-30T21:23:28.784Z,38.40
2022-08-30T21:26:00.383Z,38.60
2022-08-30T21:28:28.300Z,39.40
2022-08-30T21:31:04.754Z,38.90
2022-08-30T21:33:33.893Z,39.10
2022-08-30T21:36:19.161Z,39.40
2022-08-30T21:38:47.146Z,39.50
2022-08-30T21:41:15.284Z,39.70
2022-08-30T21:43:43.068Z,39.70
2022-08-30T21:46:11.958Z,40.00
2022-08-30T21:48:41.240Z,40.20
2022-08-30T21:51:10.653Z,40.10
2022-08-30T21:53:38.724Z,40.30
2022-08-30T21:56:13.058Z,40.30
2022-08-30T21:58:43.515Z,40.50
2022-08-30T22:01:13.257Z,40.60
2022-08-30T22:03:42.797Z,40.70
2022-08-30T22:06:11.972Z,41.00
2022-08-30T22:08:41.235Z,41.20
2022-08-30T22:11:09.692Z,41.20
2022-08-30T22:13:39.635Z,41.30
2022-08-30T22:16:08.467Z,41.30
2022-08-30T22:18:37.092Z,41.60
2022-08-30T22:21:07.417Z,41.70
2022-08-30T22:23:38.031Z,41.80
2022-08-30T22:26:07.216Z,42.00
2022-08-30T22:28:35.498Z,42.00
2022-08-30T22:31:05.622Z,42.20
2022-08-30T22:33:33.951Z,42.30
2022-08-30T22:36:08.254Z,42.20
2022-08-30T22:38:36.077Z,42.10
2022-08-30T22:41:04.772Z,42.30
2022-08-30T22:43:32.560Z,42.40
2022-08-30T22:46:00.801Z,42.60
2022-08-30T22:48:28.681Z,42.40
2022-08-30T22:50:56.486Z,42.50
2022-08-30T22:53:25.677Z,42.70
2022-08-30T22:55:53.494Z,42.90
2022-08-30T22:58:21.334Z,43.00
2022-08-30T23:00:54.995Z,43.10
2022-08-30T23:03:23.337Z,42.90
2022-08-30T23:05:51.106Z,43.10
2022-08-30T23:08:18.864Z,43.00
2022-08-30T23:10:48.160Z,43.00
2022-08-30T23:13:15.933Z,43.10
2022-08-30T23:15:43.772Z,43.20
2022-08-30T23:18:11.668Z,43.70
2022-08-30T23:20:39.462Z,43.70
2022-08-30T23:23:06.264Z,43.80
2022-08-30T23:25:52.783Z,43.80
2022-08-30T23:28:40.236Z,44.10
2022-08-30T23:31:30.208Z,44.20
2022-08-30T23:34:15.964Z,44.40
2022-08-30T23:37:01.631Z,44.70
2022-08-30T23:39:47.297Z,44.80
2022-08-30T23:42:32.859Z,45.00
2022-08-30T23:45:19.600Z,44.90
2022-08-30T23:48:04.900Z,44.90
2022-08-30T23:50:50.576Z,45.10
2022-08-30T23:53:35.914Z,45.30
2022-08-30T23:56:21.430Z,45.20
2022-08-30T23:59:06.587Z,45.40
